createdAt,value
2018-12-14T00:02:25.383Z,1.30
2018-12-14T00:04:53.654Z,1.30
2018-12-14T00:07:21.922Z,1.30
2018-12-14T00:09:50.312Z,1.20
2018-12-14T00:12:18.710Z,1.30
2018-12-14T00:14:47.191Z,1.30
2018-12-14T00:17:18.063Z,1.30
2018-12-14T00:19:46.345Z,1.30
2018-12-14T00:22:14.623Z,1.30
2018-12-14T00:24:42.902Z,1.30
2018-12-14T00:27:11.182Z,1.30
2018-12-14T00:29:39.743Z,1.30
2018-12-14T00:32:15.073Z,1.30
2018-12-14T00:34:43.371Z,1.20
2018-12-14T00:37:11.664Z,1.30
2018-12-14T00:39:39.974Z,1.30
2018-12-14T00:42:08.320Z,1.30
2018-12-14T00:44:36.743Z,1.30
2018-12-14T00:47:05.090Z,1.20
2018-12-14T00:49:33.390Z,1.30
2018-12-14T00:52:01.741Z,1.30
2018-12-14T00:54:30.110Z,1.30
2018-12-14T00:56:58.456Z,1.30
2018-12-14T00:59:27.113Z,1.30
2018-12-14T01:02:02.117Z,1.20
2018-12-14T01:04:30.582Z,1.20
2018-12-14T01:06:58.854Z,1.20
2018-12-14T01:09:27.338Z,1.20
2018-12-14T01:11:58.299Z,1.20
2018-12-14T01:14:26.172Z,1.20
2018-12-14T01:16:54.445Z,1.20
2018-12-14T01:19:22.751Z,1.20
2018-12-14T01:21:51.022Z,1.30
2018-12-14T01:24:19.303Z,1.20
2018-12-14T01:26:47.578Z,1.20
2018-12-14T01:29:15.863Z,1.20
2018-12-14T01:31:44.141Z,1.20
2018-12-14T01:34:12.436Z,1.20
2018-12-14T01:36:40.798Z,1.20
2018-12-14T01:39:09.289Z,1.20
2018-12-14T01:41:37.554Z,1.10
2018-12-14T01:44:05.827Z,1.20
2018-12-14T01:46:34.175Z,1.20
2018-12-14T01:49:02.556Z,1.20
2018-12-14T01:51:31.395Z,1.20
2018-12-14T01:53:59.762Z,1.20
2018-12-14T01:56:28.142Z,1.20
2018-12-14T01:58:56.487Z,1.20
2018-12-14T02:01:24.855Z,1.20
2018-12-14T02:03:53.125Z,1.20
2018-12-14T02:06:21.400Z,1.20
2018-12-14T02:08:49.682Z,1.10
2018-12-14T02:11:18.212Z,1.10
2018-12-14T02:13:46.592Z,1.10
2018-12-14T02:16:14.877Z,1.10
2018-12-14T02:18:43.146Z,1.10
2018-12-14T02:21:11.430Z,1.00
2018-12-14T02:23:39.790Z,1.00
2018-12-14T02:26:08.296Z,1.00
2018-12-14T02:28:36.604Z,1.00
2018-12-14T02:31:04.992Z,1.00
2018-12-14T02:33:33.397Z,1.00
2018-12-14T02:36:01.694Z,1.00
2018-12-14T02:38:29.982Z,1.00
2018-12-14T02:40:58.289Z,0.90
2018-12-14T02:43:26.764Z,0.90
2018-12-14T02:45:55.167Z,1.00
2018-12-14T02:48:23.418Z,1.00
2018-12-14T02:50:51.701Z,1.00
2018-12-14T02:53:19.992Z,0.90
2018-12-14T02:55:48.368Z,1.00
2018-12-14T02:58:16.638Z,0.90
2018-12-14T03:00:44.915Z,1.00
2018-12-14T03:03:13.180Z,1.00
2018-12-14T03:05:41.467Z,1.00
2018-12-14T03:08:09.860Z,1.10
2018-12-14T03:10:38.147Z,1.00
2018-12-14T03:13:06.404Z,1.00
2018-12-14T03:15:34.750Z,1.00
2018-12-14T03:18:03.010Z,0.90
2018-12-14T03:20:31.302Z,0.90
2018-12-14T03:22:59.567Z,0.90
2018-12-14T03:25:27.933Z,0.90
2018-12-14T03:27:56.250Z,0.90
2018-12-14T03:30:24.531Z,1.00
2018-12-14T03:32:52.910Z,1.00
2018-12-14T03:35:21.178Z,1.00
2018-12-14T03:37:49.455Z,1.00
2018-12-14T03:40:17.734Z,0.90
2018-12-14T03:42:45.978Z,0.90
2018-12-14T03:45:14.249Z,0.90
2018-12-14T03:47:42.502Z,0.90
2018-12-14T03:50:10.892Z,0.90
2018-12-14T03:52:39.188Z,0.90
2018-12-14T03:55:07.609Z,0.90
2018-12-14T03:57:35.891Z,0.90
2018-12-14T04:00:05.273Z,0.90
2018-12-14T04:02:33.533Z,1.00
2018-12-14T04:05:01.859Z,1.00
2018-12-14T04:07:30.111Z,1.00
2018-12-14T04:09:58.396Z,1.00
2018-12-14T04:12:26.775Z,1.00
2018-12-14T04:15:13.818Z,0.90
2018-12-14T04:17:46.086Z,0.90
2018-12-14T04:20:19.573Z,0.90
2018-12-14T04:22:51.811Z,0.90
2018-12-14T04:25:25.223Z,0.90
2018-12-14T04:27:54.513Z,0.90
2018-12-14T04:30:22.775Z,0.80
2018-12-14T04:32:51.022Z,0.80
2018-12-14T04:35:19.292Z,0.90
2018-12-14T04:37:47.560Z,0.90
2018-12-14T04:40:15.839Z,0.90
2018-12-14T04:42:48.742Z,0.80
2018-12-14T04:45:14.471Z,0.90
2018-12-14T04:47:42.750Z,0.80
2018-12-14T04:50:11.011Z,0.80
2018-12-14T04:52:39.426Z,0.80
2018-12-14T04:55:07.721Z,0.70
2018-12-14T04:57:36.027Z,0.70
2018-12-14T05:00:05.296Z,0.70
2018-12-14T05:02:33.558Z,0.70
2018-12-14T05:05:01.861Z,0.70
2018-12-14T05:07:30.172Z,0.60
2018-12-14T05:09:58.523Z,0.60
2018-12-14T05:12:26.812Z,0.50
2018-12-14T05:14:55.070Z,0.60
2018-12-14T05:17:23.346Z,0.60
2018-12-14T05:19:51.617Z,0.60
2018-12-14T05:22:19.908Z,0.70
2018-12-14T05:24:48.172Z,0.70
2018-12-14T05:27:16.449Z,0.60
2018-12-14T05:29:44.802Z,0.60
2018-12-14T05:32:13.110Z,0.60
2018-12-14T05:34:41.389Z,0.60
2018-12-14T05:37:09.799Z,0.60
2018-12-14T05:39:38.093Z,0.70
2018-12-14T05:42:06.372Z,0.70
2018-12-14T05:44:34.646Z,0.70
2018-12-14T05:47:03.050Z,0.70
2018-12-14T05:49:31.329Z,0.70
2018-12-14T05:51:59.639Z,0.70
2018-12-14T05:54:27.981Z,0.70
2018-12-14T05:56:56.568Z,0.60
2018-12-14T05:59:24.930Z,0.60
2018-12-14T06:01:53.216Z,0.60
2018-12-14T06:04:21.476Z,0.60
2018-12-14T06:06:49.889Z,0.60
2018-12-14T06:09:18.246Z,0.60
2018-12-14T06:11:46.565Z,0.60
2018-12-14T06:14:14.906Z,0.60
2018-12-14T06:16:43.184Z,0.60
2018-12-14T06:19:11.503Z,0.60
2018-12-14T06:21:39.977Z,0.60
2018-12-14T06:24:08.418Z,0.50
2018-12-14T06:26:36.752Z,0.50
2018-12-14T06:29:05.190Z,0.50
2018-12-14T06:31:33.504Z,0.50
2018-12-14T06:34:01.844Z,0.50
2018-12-14T06:36:30.795Z,0.50
2018-12-14T06:38:59.224Z,0.40
2018-12-14T06:41:27.509Z,0.40
2018-12-14T06:43:55.889Z,0.40
2018-12-14T06:46:24.263Z,0.30
2018-12-14T06:48:52.764Z,0.30
2018-12-14T06:51:21.414Z,0.20
2018-12-14T06:53:49.821Z,0.20
2018-12-14T06:56:18.195Z,0.20
2018-12-14T06:58:46.684Z,0.20
2018-12-14T07:01:15.042Z,0.20
2018-12-14T07:03:43.350Z,0.20
2018-12-14T07:06:11.877Z,0.20
2018-12-14T07:08:40.189Z,0.20
2018-12-14T07:11:08.884Z,0.20
2018-12-14T07:13:37.246Z,0.20
2018-12-14T07:16:05.630Z,0.20
2018-12-14T07:18:34.094Z,0.20
2018-12-14T07:21:03.384Z,0.20
2018-12-14T07:23:31.687Z,0.30
2018-12-14T07:26:00.065Z,0.30
2018-12-14T07:28:28.474Z,0.30
2018-12-14T07:30:56.852Z,0.40
2018-12-14T07:33:25.278Z,0.40
2018-12-14T07:35:53.567Z,0.40
2018-12-14T07:38:28.749Z,0.50
2018-12-14T07:40:57.081Z,0.50
2018-12-14T07:43:28.278Z,0.50
2018-12-14T07:45:55.802Z,0.60
2018-12-14T07:48:24.315Z,0.60
2018-12-14T07:50:52.747Z,0.60
2018-12-14T07:53:21.039Z,0.60
2018-12-14T07:55:49.454Z,0.60
2018-12-14T07:58:17.786Z,0.60
2018-12-14T08:00:46.277Z,0.70
2018-12-14T08:03:16.093Z,0.70
2018-12-14T08:05:44.589Z,0.60
2018-12-14T08:08:12.943Z,0.60
2018-12-14T08:10:41.377Z,0.60
2018-12-14T08:13:09.910Z,0.60
2018-12-14T08:15:38.233Z,0.60
2018-12-14T08:18:06.688Z,0.70
2018-12-14T08:20:35.043Z,0.60
2018-12-14T08:23:03.375Z,0.60
2018-12-14T08:25:31.770Z,0.60
2018-12-14T08:28:00.192Z,0.60
2018-12-14T08:30:28.699Z,0.60
2018-12-14T08:32:57.061Z,0.60
2018-12-14T08:35:25.419Z,0.60
2018-12-14T08:37:53.742Z,0.60
2018-12-14T08:40:22.096Z,0.70
2018-12-14T08:42:50.541Z,0.70
2018-12-14T08:45:18.845Z,0.80
2018-12-14T08:47:47.612Z,0.80
2018-12-14T08:50:17.288Z,0.80
2018-12-14T08:52:46.405Z,0.90
2018-12-14T08:55:14.742Z,0.90
2018-12-14T08:57:43.036Z,0.90
2018-12-14T09:00:11.362Z,0.90
2018-12-14T09:02:39.630Z,0.90
2018-12-14T09:05:08.335Z,0.90
2018-12-14T09:07:36.594Z,0.90
2018-12-14T09:10:06.237Z,0.90
2018-12-14T09:12:34.489Z,1.00
2018-12-14T09:15:02.778Z,1.00
2018-12-14T09:17:31.054Z,1.00
2018-12-14T09:19:59.490Z,1.00
2018-12-14T09:22:27.829Z,1.10
2018-12-14T09:24:56.183Z,1.10
2018-12-14T09:27:24.538Z,1.10
2018-12-14T09:29:52.824Z,1.20
2018-12-14T09:32:21.118Z,1.20
2018-12-14T09:34:49.636Z,1.40
2018-12-14T09:37:17.950Z,1.50
2018-12-14T09:39:46.195Z,1.60
2018-12-14T09:42:14.472Z,1.70
2018-12-14T09:44:42.748Z,1.80
2018-12-14T09:47:11.035Z,1.90
2018-12-14T09:49:39.332Z,1.90
2018-12-14T09:52:07.873Z,2.00
2018-12-14T09:54:36.235Z,2.10
2018-12-14T09:57:04.613Z,2.20
2018-12-14T09:59:32.994Z,2.30
2018-12-14T10:02:01.330Z,2.30
2018-12-14T10:04:29.638Z,2.20
2018-12-14T10:06:58.029Z,2.10
2018-12-14T10:09:26.384Z,2.00
2018-12-14T10:11:55.313Z,2.00
2018-12-14T10:14:24.013Z,1.90
2018-12-14T10:16:53.446Z,1.90
2018-12-14T10:19:21.743Z,2.00
2018-12-14T10:21:50.047Z,2.00
2018-12-14T10:24:18.427Z,2.10
2018-12-14T10:26:46.683Z,2.20
2018-12-14T10:29:15.050Z,2.30
2018-12-14T10:31:43.357Z,2.30
2018-12-14T10:34:11.740Z,2.30
2018-12-14T10:36:40.166Z,2.20
2018-12-14T10:39:08.697Z,2.30
2018-12-14T10:41:37.076Z,2.20
2018-12-14T10:44:07.579Z,2.20
2018-12-14T10:46:35.786Z,2.20
2018-12-14T10:49:04.291Z,2.10
2018-12-14T10:51:32.910Z,1.90
2018-12-14T10:54:01.218Z,1.90
2018-12-14T10:56:29.703Z,1.90
2018-12-14T10:58:58.074Z,1.90
2018-12-14T11:01:31.674Z,1.90
2018-12-14T11:04:00.073Z,1.90
2018-12-14T11:06:28.465Z,2.00
2018-12-14T11:08:56.929Z,2.00
2018-12-14T11:11:25.278Z,2.10
2018-12-14T11:13:53.679Z,2.20
2018-12-14T11:16:22.092Z,2.10
2018-12-14T11:18:50.417Z,2.10
2018-12-14T11:21:19.015Z,2.20
2018-12-14T11:23:47.391Z,2.20
2018-12-14T11:26:15.760Z,2.10
2018-12-14T11:28:45.077Z,2.10
2018-12-14T11:31:13.455Z,2.10
2018-12-14T11:33:41.850Z,2.10
2018-12-14T11:36:10.351Z,2.10
2018-12-14T11:38:38.780Z,2.10
2018-12-14T11:41:07.325Z,2.00
2018-12-14T11:43:35.647Z,2.00
2018-12-14T11:46:05.021Z,1.90
2018-12-14T11:48:33.404Z,1.90
2018-12-14T11:51:01.878Z,1.90
2018-12-14T11:53:30.179Z,1.90
2018-12-14T11:55:58.445Z,1.80
2018-12-14T11:58:27.331Z,1.80
2018-12-14T12:00:55.974Z,1.80
2018-12-14T12:03:24.294Z,1.70
2018-12-14T12:05:52.607Z,1.70
2018-12-14T12:08:21.076Z,1.80
2018-12-14T12:10:49.389Z,1.80
2018-12-14T12:13:17.785Z,1.70
2018-12-14T12:15:46.342Z,1.70
2018-12-14T12:18:14.673Z,1.60
2018-12-14T12:20:43.083Z,1.50
2018-12-14T12:23:11.527Z,1.40
2018-12-14T12:25:39.945Z,1.40
2018-12-14T12:28:08.319Z,1.40
2018-12-14T12:30:36.715Z,1.40
2018-12-14T12:33:05.005Z,1.40
2018-12-14T12:35:33.275Z,1.40
2018-12-14T12:38:01.567Z,1.30
2018-12-14T12:40:29.845Z,1.30
2018-12-14T12:42:58.117Z,1.30
2018-12-14T12:45:26.488Z,1.30
2018-12-14T12:47:54.792Z,1.40
2018-12-14T12:50:23.074Z,1.40
2018-12-14T12:52:51.378Z,1.40
2018-12-14T12:55:19.639Z,1.40
2018-12-14T12:57:48.013Z,1.40
2018-12-14T13:00:16.271Z,1.40
2018-12-14T13:02:44.534Z,1.50
2018-12-14T13:05:12.904Z,1.50
2018-12-14T13:07:41.162Z,1.50
2018-12-14T13:10:09.773Z,1.40
2018-12-14T13:12:38.057Z,1.40
2018-12-14T13:15:06.936Z,1.30
2018-12-14T13:17:35.190Z,1.30
2018-12-14T13:20:04.940Z,1.30
2018-12-14T13:22:33.291Z,1.30
2018-12-14T13:25:03.001Z,1.30
2018-12-14T13:27:31.372Z,1.40
2018-12-14T13:29:59.709Z,1.40
2018-12-14T13:32:28.052Z,1.50
2018-12-14T13:34:56.383Z,1.50
2018-12-14T13:37:24.884Z,1.50
2018-12-14T13:39:53.302Z,1.40
2018-12-14T13:42:21.738Z,1.30
2018-12-14T13:44:53.177Z,1.30
2018-12-14T13:47:21.729Z,1.30
2018-12-14T13:49:50.226Z,1.30
2018-12-14T13:52:18.547Z,1.30
2018-12-14T13:54:47.652Z,1.30
2018-12-14T13:57:17.129Z,1.20
2018-12-14T13:59:45.429Z,1.20
2018-12-14T14:02:14.521Z,1.20
2018-12-14T14:04:42.867Z,1.20
2018-12-14T14:07:11.164Z,1.20
2018-12-14T14:09:41.797Z,1.20
2018-12-14T14:12:10.363Z,1.30
2018-12-14T14:14:38.689Z,1.30
2018-12-14T14:17:08.336Z,1.30
2018-12-14T14:19:36.618Z,1.20
2018-12-14T14:22:04.913Z,1.20
2018-12-14T14:24:33.310Z,1.20
2018-12-14T14:27:01.739Z,1.20
2018-12-14T14:29:30.030Z,1.30
2018-12-14T14:31:58.394Z,1.30
2018-12-14T14:34:26.694Z,1.20
2018-12-14T14:36:58.088Z,1.20
2018-12-14T14:39:26.435Z,1.20
2018-12-14T14:41:54.855Z,1.20
2018-12-14T14:44:23.287Z,1.30
2018-12-14T14:46:51.569Z,1.30
2018-12-14T14:49:20.016Z,1.40
2018-12-14T14:51:48.720Z,1.30
2018-12-14T14:54:17.164Z,1.30
2018-12-14T14:56:45.505Z,1.30
2018-12-14T14:59:13.852Z,1.30
2018-12-14T15:01:42.173Z,1.30
2018-12-14T15:04:10.565Z,1.30
2018-12-14T15:06:38.997Z,1.40
2018-12-14T15:09:08.835Z,1.40
2018-12-14T15:11:37.226Z,1.40
2018-12-14T15:14:05.708Z,1.40
2018-12-14T15:16:34.070Z,1.40
2018-12-14T15:19:02.591Z,1.40
2018-12-14T15:21:31.017Z,1.40
2018-12-14T15:23:59.409Z,1.40
2018-12-14T15:26:27.670Z,1.40
2018-12-14T15:28:55.976Z,1.40
2018-12-14T15:31:24.333Z,1.40
2018-12-14T15:33:52.619Z,1.40
2018-12-14T15:36:21.080Z,1.30
2018-12-14T15:38:49.376Z,1.40
2018-12-14T15:41:17.742Z,1.40
2018-12-14T15:43:46.278Z,1.40
2018-12-14T15:46:14.701Z,1.40
2018-12-14T15:48:42.989Z,1.40
2018-12-14T15:51:11.279Z,1.50
2018-12-14T15:53:39.582Z,1.40
2018-12-14T15:56:08.289Z,1.50
2018-12-14T15:58:36.662Z,1.50
2018-12-14T16:01:04.995Z,1.50
2018-12-14T16:03:34.263Z,1.40
2018-12-14T16:06:02.606Z,1.40
2018-12-14T16:08:30.967Z,1.40
2018-12-14T16:10:59.318Z,1.40
2018-12-14T16:13:27.752Z,1.40
2018-12-14T16:15:56.207Z,1.40
2018-12-14T16:18:24.744Z,1.40
2018-12-14T16:20:53.188Z,1.40
2018-12-14T16:23:21.538Z,1.30
2018-12-14T16:25:50.047Z,1.30
2018-12-14T16:28:18.471Z,1.30
2018-12-14T16:30:46.774Z,1.30
2018-12-14T16:33:15.255Z,1.30
2018-12-14T16:35:43.725Z,1.30
2018-12-14T16:38:12.030Z,1.30
2018-12-14T16:40:40.390Z,1.40
2018-12-14T16:43:08.964Z,1.40
2018-12-14T16:45:37.391Z,1.40
2018-12-14T16:48:05.843Z,1.40
2018-12-14T16:50:34.242Z,1.40
2018-12-14T16:53:02.823Z,1.30
2018-12-14T16:55:31.257Z,1.30
2018-12-14T16:57:59.558Z,1.30
2018-12-14T17:00:27.934Z,1.30
2018-12-14T17:02:56.516Z,1.40
2018-12-14T17:05:24.935Z,1.30
2018-12-14T17:07:53.311Z,1.30
2018-12-14T17:10:21.688Z,1.30
2018-12-14T17:12:50.035Z,1.30
2018-12-14T17:15:18.356Z,1.30
2018-12-14T17:17:46.694Z,1.30
2018-12-14T17:20:15.076Z,1.30
2018-12-14T17:22:43.499Z,1.30
2018-12-14T17:25:12.831Z,1.30
2018-12-14T17:27:41.248Z,1.30
2018-12-14T17:30:09.793Z,1.30
2018-12-14T17:32:38.086Z,1.30
2018-12-14T17:35:06.704Z,1.40
2018-12-14T17:37:35.043Z,1.40
2018-12-14T17:40:03.451Z,1.40
2018-12-14T17:42:31.942Z,1.40
2018-12-14T17:45:00.227Z,1.40
2018-12-14T17:47:28.595Z,1.30
2018-12-14T17:49:57.056Z,1.30
2018-12-14T17:52:25.449Z,1.30
2018-12-14T17:54:53.842Z,1.30
2018-12-14T17:57:22.201Z,1.30
2018-12-14T17:59:50.573Z,1.30
2018-12-14T18:02:18.837Z,1.30
2018-12-14T18:04:47.169Z,1.30
2018-12-14T18:07:16.521Z,1.30
2018-12-14T18:09:44.853Z,1.30
2018-12-14T18:12:13.165Z,1.20
2018-12-14T18:14:41.630Z,1.20
2018-12-14T18:17:09.930Z,1.20
2018-12-14T18:19:38.227Z,1.20
2018-12-14T18:22:06.689Z,1.20
2018-12-14T18:24:35.214Z,1.20
2018-12-14T18:27:04.662Z,1.20
2018-12-14T18:29:33.874Z,1.20
2018-12-14T18:32:02.162Z,1.20
2018-12-14T18:34:30.556Z,1.20
2018-12-14T18:36:58.949Z,1.20
2018-12-14T18:39:27.308Z,1.10
2018-12-14T18:41:55.688Z,1.20
2018-12-14T18:44:23.967Z,1.10
2018-12-14T18:46:52.300Z,1.10
2018-12-14T18:49:20.650Z,1.00
2018-12-14T18:51:48.965Z,1.00
2018-12-14T18:54:17.272Z,1.00
2018-12-14T18:56:45.664Z,1.10
2018-12-14T18:59:14.374Z,1.00
2018-12-14T19:01:43.210Z,1.00
2018-12-14T19:04:11.718Z,0.90
2018-12-14T19:06:40.154Z,0.90
2018-12-14T19:09:08.732Z,0.90
2018-12-14T19:11:37.186Z,0.90
2018-12-14T19:14:05.823Z,0.90
2018-12-14T19:16:34.131Z,0.90
2018-12-14T19:19:02.499Z,0.90
2018-12-14T19:21:30.898Z,0.90
2018-12-14T19:23:59.256Z,0.90
2018-12-14T19:26:27.641Z,0.80
2018-12-14T19:28:56.158Z,0.80
2018-12-14T19:31:24.518Z,0.70
2018-12-14T19:33:52.905Z,0.70
2018-12-14T19:36:21.254Z,0.70
2018-12-14T19:38:49.634Z,0.80
2018-12-14T19:41:18.030Z,0.80
2018-12-14T19:43:46.425Z,0.80
2018-12-14T19:46:14.767Z,0.80
2018-12-14T19:48:43.239Z,0.80
2018-12-14T19:51:11.642Z,0.90
2018-12-14T19:53:40.340Z,0.90
2018-12-14T19:56:08.734Z,1.00
2018-12-14T19:58:37.053Z,1.00
2018-12-14T20:01:05.349Z,1.00
2018-12-14T20:03:33.727Z,1.00
2018-12-14T20:06:02.116Z,1.00
2018-12-14T20:08:31.512Z,1.10
2018-12-14T20:10:59.893Z,1.10
2018-12-14T20:13:28.409Z,1.10
2018-12-14T20:15:57.722Z,1.10
2018-12-14T20:18:26.330Z,1.00
2018-12-14T20:20:54.678Z,1.00
2018-12-14T20:23:23.032Z,1.00
2018-12-14T20:25:51.392Z,1.00
2018-12-14T20:28:19.823Z,1.10
2018-12-14T20:30:48.272Z,1.10
2018-12-14T20:33:16.639Z,1.10
2018-12-14T20:35:45.042Z,1.10
2018-12-14T20:38:13.474Z,1.10
2018-12-14T20:40:41.814Z,1.10
2018-12-14T20:43:10.152Z,1.10
2018-12-14T20:45:38.423Z,1.20
2018-12-14T20:48:06.805Z,1.20
2018-12-14T20:50:35.191Z,1.10
2018-12-14T20:53:03.642Z,1.10
2018-12-14T20:55:31.938Z,1.10
2018-12-14T20:58:00.330Z,1.20
2018-12-14T21:00:28.671Z,1.20
2018-12-14T21:02:56.951Z,1.20
2018-12-14T21:05:25.398Z,1.30
2018-12-14T21:07:53.757Z,1.20
2018-12-14T21:10:22.250Z,1.20
2018-12-14T21:12:50.584Z,1.20
2018-12-14T21:15:18.993Z,1.20
2018-12-14T21:17:47.408Z,1.10
2018-12-14T21:20:15.796Z,1.20
2018-12-14T21:22:45.004Z,1.20
2018-12-14T21:25:13.417Z,1.20
2018-12-14T21:27:42.051Z,1.20
2018-12-14T21:30:10.616Z,1.20
2018-12-14T21:32:38.932Z,1.20
2018-12-14T21:35:07.464Z,1.20
2018-12-14T21:37:35.828Z,1.20
2018-12-14T21:40:04.660Z,1.20
2018-12-14T21:42:34.349Z,1.20
2018-12-14T21:45:03.231Z,1.20
2018-12-14T21:47:31.609Z,1.20
2018-12-14T21:50:00.045Z,1.20
2018-12-14T21:52:29.380Z,1.20
2018-12-14T21:54:57.755Z,1.20
2018-12-14T21:57:26.130Z,1.20
2018-12-14T21:59:54.517Z,1.20
2018-12-14T22:02:22.877Z,1.20
2018-12-14T22:04:52.668Z,1.20
2018-12-14T22:07:20.998Z,1.20
2018-12-14T22:09:49.326Z,1.20
2018-12-14T22:12:17.623Z,1.20
2018-12-14T22:14:45.999Z,1.20
2018-12-14T22:17:14.326Z,1.20
2018-12-14T22:19:45.674Z,1.20
2018-12-14T22:22:13.992Z,1.30
2018-12-14T22:24:42.409Z,1.30
2018-12-14T22:27:10.881Z,1.30
2018-12-14T22:29:39.287Z,1.30
2018-12-14T22:32:07.632Z,1.30
2018-12-14T22:34:36.030Z,1.30
2018-12-14T22:37:04.306Z,1.30
2018-12-14T22:39:32.975Z,1.30
2018-12-14T22:42:08.295Z,1.30
2018-12-14T22:44:36.688Z,1.30
2018-12-14T22:47:05.098Z,1.30
2018-12-14T22:49:33.522Z,1.30
2018-12-14T22:52:01.930Z,1.30
2018-12-14T22:54:30.379Z,1.30
2018-12-14T22:56:58.781Z,1.30
2018-12-14T22:59:27.142Z,1.30
2018-12-14T23:01:55.466Z,1.30
2018-12-14T23:04:23.878Z,1.30
2018-12-14T23:06:52.222Z,1.30
2018-12-14T23:09:20.613Z,1.30
2018-12-14T23:11:48.959Z,1.30
2018-12-14T23:14:23.950Z,1.30
2018-12-14T23:16:52.527Z,1.30
2018-12-14T23:19:21.099Z,1.30
2018-12-14T23:21:51.524Z,1.30
2018-12-14T23:24:19.847Z,1.30
2018-12-14T23:26:48.123Z,1.30
2018-12-14T23:29:16.416Z,1.30
2018-12-14T23:31:45.000Z,1.30
2018-12-14T23:34:13.388Z,1.30
2018-12-14T23:36:41.840Z,1.30
2018-12-14T23:39:10.115Z,1.30
2018-12-14T23:41:38.425Z,1.30
2018-12-14T23:44:06.791Z,1.30
2018-12-14T23:46:35.082Z,1.30
2018-12-14T23:49:03.488Z,1.30
2018-12-14T23:51:31.866Z,1.30
2018-12-14T23:54:00.219Z,1.20
2018-12-14T23:56:28.645Z,1.20
2018-12-14T23:58:57.829Z,1.20
